sensor_id;sensor_type;location;lat;lon;timestamp;pressure;altitude;pressure_sealevel;temperature;humidity
23303;BME280;11820;48.738;9.092;2023-04-29T00:00:44;95972.53;;;13.71;100.00
23303;BME280;11820;48.738;9.092;2023-04-29T00:03:10;95968.91;;;13.72;100.00
23303;BME280;11820;48.738;9.092;2023-04-29T00:05:35;95959.53;;;13.71;100.00
23303;BME280;11820;48.738;9.092;2023-04-29T00:08:00;95959.53;;;13.71;100.00
23303;BME280;11820;48.738;9.092;2023-04-29T00:10:26;95966.38;;;13.66;100.00
23303;BME280;11820;48.738;9.092;2023-04-29T00:12:51;95954.34;;;13.71;100.00
23303;BME280;11820;48.738;9.092;2023-04-29T00:15:17;95955.34;;;13.70;100.00
23303;BME280;11820;48.738;9.092;2023-04-29T00:17:42;95956.50;;;13.74;100.00
23303;BME280;11820;48.738;9.092;2023-04-29T00:20:09;95945.53;;;13.72;100.00
23303;BME280;11820;48.738;9.092;2023-04-29T00:22:36;95945.66;;;13.77;100.00
23303;BME280;11820;48.738;9.092;2023-04-29T00:25:01;95950.63;;;13.79;100.00
23303;BME280;11820;48.738;9.092;2023-04-29T00:27:26;95946.22;;;13.79;100.00
23303;BME280;11820;48.738;9.092;2023-04-29T00:29:52;95947.69;;;13.75;100.00
23303;BME280;11820;48.738;9.092;2023-04-29T00:32:17;95942.47;;;13.75;100.00
23303;BME280;11820;48.738;9.092;2023-04-29T00:34:43;95943.25;;;13.76;100.00
23303;BME280;11820;48.738;9.092;2023-04-29T00:37:08;95947.59;;;13.82;100.00
23303;BME280;11820;48.738;9.092;2023-04-29T00:39:33;95948.25;;;13.77;100.00
23303;BME280;11820;48.738;9.092;2023-04-29T00:41:59;95952.00;;;13.81;100.00
23303;BME280;11820;48.738;9.092;2023-04-29T00:44:24;95950.84;;;13.77;100.00
23303;BME280;11820;48.738;9.092;2023-04-29T00:46:50;95955.09;;;13.72;100.00
23303;BME280;11820;48.738;9.092;2023-04-29T00:49:15;95960.66;;;13.75;100.00
23303;BME280;11820;48.738;9.092;2023-04-29T00:51:40;95958.38;;;13.67;100.00
23303;BME280;11820;48.738;9.092;2023-04-29T00:54:06;95964.59;;;13.66;100.00
23303;BME280;11820;48.738;9.092;2023-04-29T00:56:34;95965.16;;;13.68;100.00
23303;BME280;11820;48.738;9.092;2023-04-29T00:59:01;95959.28;;;13.73;100.00
23303;BME280;11820;48.738;9.092;2023-04-29T01:01:27;95964.16;;;13.69;100.00
23303;BME280;11820;48.738;9.092;2023-04-29T01:03:52;95968.19;;;13.65;100.00
23303;BME280;11820;48.738;9.092;2023-04-29T01:09:08;95965.59;;;13.65;100.00
23303;BME280;11820;48.738;9.092;2023-04-29T01:11:51;95959.91;;;13.57;100.00
23303;BME280;11820;48.738;9.092;2023-04-29T01:14:18;95960.63;;;13.64;100.00
23303;BME280;11820;48.738;9.092;2023-04-29T01:16:50;95957.91;;;13.59;100.00
23303;BME280;11820;48.738;9.092;2023-04-29T01:19:48;95961.84;;;13.61;100.00
23303;BME280;11820;48.738;9.092;2023-04-29T01:22:14;95966.84;;;13.63;100.00
23303;BME280;11820;48.738;9.092;2023-04-29T01:24:42;95963.88;;;13.59;100.00
23303;BME280;11820;48.738;9.092;2023-04-29T01:27:32;95965.31;;;13.55;100.00
23303;BME280;11820;48.738;9.092;2023-04-29T01:39:02;95968.34;;;13.52;100.00
23303;BME280;11820;48.738;9.092;2023-04-29T01:44:07;95964.91;;;13.40;100.00
23303;BME280;11820;48.738;9.092;2023-04-29T01:46:32;95971.84;;;13.28;100.00
23303;BME280;11820;48.738;9.092;2023-04-29T01:48:58;95962.72;;;13.37;100.00
23303;BME280;11820;48.738;9.092;2023-04-29T01:51:23;95965.25;;;13.44;100.00
23303;BME280;11820;48.738;9.092;2023-04-29T01:53:48;95959.28;;;13.43;100.00
23303;BME280;11820;48.738;9.092;2023-04-29T01:56:14;95955.94;;;13.36;100.00
23303;BME280;11820;48.738;9.092;2023-04-29T01:58:39;95952.91;;;13.39;100.00
23303;BME280;11820;48.738;9.092;2023-04-29T02:01:05;95955.69;;;13.44;100.00
23303;BME280;11820;48.738;9.092;2023-04-29T02:03:31;95960.44;;;13.47;100.00
23303;BME280;11820;48.738;9.092;2023-04-29T02:05:56;95954.66;;;13.45;100.00
23303;BME280;11820;48.738;9.092;2023-04-29T02:08:22;95950.47;;;13.44;100.00
23303;BME280;11820;48.738;9.092;2023-04-29T02:10:55;95960.44;;;13.47;100.00
23303;BME280;11820;48.738;9.092;2023-04-29T02:13:20;95957.47;;;13.44;100.00
23303;BME280;11820;48.738;9.092;2023-04-29T02:15:46;95961.59;;;13.51;100.00
23303;BME280;11820;48.738;9.092;2023-04-29T02:18:12;95964.19;;;13.51;100.00
23303;BME280;11820;48.738;9.092;2023-04-29T02:20:37;95971.75;;;13.53;100.00
23303;BME280;11820;48.738;9.092;2023-04-29T02:23:02;95965.75;;;13.52;100.00
23303;BME280;11820;48.738;9.092;2023-04-29T02:25:28;95962.47;;;13.45;100.00
23303;BME280;11820;48.738;9.092;2023-04-29T02:27:53;95962.91;;;13.42;100.00
23303;BME280;11820;48.738;9.092;2023-04-29T02:30:18;95958.72;;;13.41;100.00
23303;BME280;11820;48.738;9.092;2023-04-29T02:32:43;95967.34;;;13.35;100.00
23303;BME280;11820;48.738;9.092;2023-04-29T02:35:09;95966.66;;;13.28;100.00
23303;BME280;11820;48.738;9.092;2023-04-29T02:37:34;95967.44;;;13.29;100.00
23303;BME280;11820;48.738;9.092;2023-04-29T02:40:00;95957.47;;;13.26;100.00
23303;BME280;11820;48.738;9.092;2023-04-29T02:42:27;95965.06;;;13.27;100.00
23303;BME280;11820;48.738;9.092;2023-04-29T02:44:52;95963.47;;;13.26;100.00
23303;BME280;11820;48.738;9.092;2023-04-29T02:47:18;95969.75;;;13.19;100.00
23303;BME280;11820;48.738;9.092;2023-04-29T02:49:43;95960.38;;;13.18;100.00
23303;BME280;11820;48.738;9.092;2023-04-29T02:52:08;95960.75;;;13.21;100.00
23303;BME280;11820;48.738;9.092;2023-04-29T02:54:34;95961.63;;;13.15;100.00
23303;BME280;11820;48.738;9.092;2023-04-29T02:57:00;95960.03;;;13.14;100.00
23303;BME280;11820;48.738;9.092;2023-04-29T02:59:25;95964.56;;;13.19;100.00
23303;BME280;11820;48.738;9.092;2023-04-29T03:01:51;95968.06;;;13.06;100.00
23303;BME280;11820;48.738;9.092;2023-04-29T03:04:18;95974.41;;;13.10;100.00
23303;BME280;11820;48.738;9.092;2023-04-29T03:06:43;95977.19;;;13.15;100.00
23303;BME280;11820;48.738;9.092;2023-04-29T03:09:09;95974.84;;;13.07;100.00
23303;BME280;11820;48.738;9.092;2023-04-29T03:11:34;95971.25;;;13.08;100.00
23303;BME280;11820;48.738;9.092;2023-04-29T03:13:59;95972.84;;;13.09;100.00
23303;BME280;11820;48.738;9.092;2023-04-29T03:16:25;95977.41;;;13.14;100.00
23303;BME280;11820;48.738;9.092;2023-04-29T03:18:50;95979.28;;;13.07;100.00
23303;BME280;11820;48.738;9.092;2023-04-29T03:21:16;95979.63;;;13.10;100.00
23303;BME280;11820;48.738;9.092;2023-04-29T03:23:41;95976.00;;;13.11;100.00
23303;BME280;11820;48.738;9.092;2023-04-29T03:26:07;95973.84;;;13.08;100.00
23303;BME280;11820;48.738;9.092;2023-04-29T03:28:33;95966.19;;;13.13;100.00
23303;BME280;11820;48.738;9.092;2023-04-29T03:30:58;95967.50;;;13.04;100.00
23303;BME280;11820;48.738;9.092;2023-04-29T03:33:24;95967.50;;;13.04;100.00
23303;BME280;11820;48.738;9.092;2023-04-29T03:35:49;95955.69;;;13.08;100.00
23303;BME280;11820;48.738;9.092;2023-04-29T03:38:15;95958.13;;;13.03;100.00
23303;BME280;11820;48.738;9.092;2023-04-29T03:40:40;95952.94;;;13.03;100.00
23303;BME280;11820;48.738;9.092;2023-04-29T03:43:05;95953.00;;;12.97;100.00
23303;BME280;11820;48.738;9.092;2023-04-29T03:45:33;95955.84;;;12.89;100.00
23303;BME280;11820;48.738;9.092;2023-04-29T03:47:58;95956.41;;;12.98;100.00
23303;BME280;11820;48.738;9.092;2023-04-29T03:50:23;95956.97;;;12.99;100.00
23303;BME280;11820;48.738;9.092;2023-04-29T03:52:50;95948.47;;;12.93;100.00
23303;BME280;11820;48.738;9.092;2023-04-29T03:55:15;95947.25;;;12.88;100.00
23303;BME280;11820;48.738;9.092;2023-04-29T03:57:41;95950.38;;;12.79;100.00
23303;BME280;11820;48.738;9.092;2023-04-29T04:00:07;95954.47;;;12.69;100.00
23303;BME280;11820;48.738;9.092;2023-04-29T04:02:33;95953.88;;;12.67;100.00
23303;BME280;11820;48.738;9.092;2023-04-29T04:04:59;95950.53;;;12.60;100.00
23303;BME280;11820;48.738;9.092;2023-04-29T04:07:24;95957.97;;;12.56;100.00
23303;BME280;11820;48.738;9.092;2023-04-29T04:09:49;95961.34;;;12.57;100.00
23303;BME280;11820;48.738;9.092;2023-04-29T04:12:15;95961.63;;;12.49;100.00
23303;BME280;11820;48.738;9.092;2023-04-29T04:14:40;95973.44;;;12.45;100.00
23303;BME280;11820;48.738;9.092;2023-04-29T04:17:06;95975.94;;;12.27;100.00
23303;BME280;11820;48.738;9.092;2023-04-29T04:19:31;95976.09;;;12.07;100.00
23303;BME280;11820;48.738;9.092;2023-04-29T04:21:57;95978.16;;;11.92;100.00
23303;BME280;11820;48.738;9.092;2023-04-29T04:24:23;95985.22;;;12.10;100.00
23303;BME280;11820;48.738;9.092;2023-04-29T04:26:48;95990.41;;;12.10;100.00
23303;BME280;11820;48.738;9.092;2023-04-29T04:29:13;95992.53;;;12.19;100.00
23303;BME280;11820;48.738;9.092;2023-04-29T04:31:39;95983.56;;;12.22;100.00
23303;BME280;11820;48.738;9.092;2023-04-29T04:34:04;95993.91;;;12.28;100.00
23303;BME280;11820;48.738;9.092;2023-04-29T04:36:29;95997.44;;;12.34;100.00
23303;BME280;11820;48.738;9.092;2023-04-29T04:38:55;96002.84;;;12.32;100.00
23303;BME280;11820;48.738;9.092;2023-04-29T04:41:20;95999.25;;;12.33;100.00
23303;BME280;11820;48.738;9.092;2023-04-29T04:43:45;95994.59;;;12.42;100.00
23303;BME280;11820;48.738;9.092;2023-04-29T04:46:14;96002.97;;;12.44;100.00
23303;BME280;11820;48.738;9.092;2023-04-29T04:48:40;96013.34;;;12.44;100.00
23303;BME280;11820;48.738;9.092;2023-04-29T04:51:10;96013.69;;;12.47;100.00
23303;BME280;11820;48.738;9.092;2023-04-29T04:53:36;96014.81;;;12.58;100.00
23303;BME280;11820;48.738;9.092;2023-04-29T04:56:02;96021.16;;;12.62;100.00
23303;BME280;11820;48.738;9.092;2023-04-29T04:58:27;96018.75;;;12.67;100.00
23303;BME280;11820;48.738;9.092;2023-04-29T05:00:56;96028.34;;;12.60;100.00
23303;BME280;11820;48.738;9.092;2023-04-29T05:03:21;96021.16;;;12.62;100.00
23303;BME280;11820;48.738;9.092;2023-04-29T05:05:52;96026.63;;;12.54;100.00
23303;BME280;11820;48.738;9.092;2023-04-29T05:08:18;96034.63;;;12.52;100.00
23303;BME280;11820;48.738;9.092;2023-04-29T05:10:43;96035.97;;;12.55;100.00
23303;BME280;11820;48.738;9.092;2023-04-29T05:13:09;96039.31;;;12.62;100.00
23303;BME280;11820;48.738;9.092;2023-04-29T05:15:34;96045.69;;;12.66;100.00
23303;BME280;11820;48.738;9.092;2023-04-29T05:18:00;96052.72;;;12.59;100.00
23303;BME280;11820;48.738;9.092;2023-04-29T05:20:25;96057.56;;;12.49;100.00
23303;BME280;11820;48.738;9.092;2023-04-29T05:22:51;96051.88;;;12.65;100.00
23303;BME280;11820;48.738;9.092;2023-04-29T05:25:16;96057.38;;;12.75;100.00
23303;BME280;11820;48.738;9.092;2023-04-29T05:27:42;96064.59;;;12.73;100.00
23303;BME280;11820;48.738;9.092;2023-04-29T05:30:07;96066.97;;;12.74;100.00
23303;BME280;11820;48.738;9.092;2023-04-29T05:32:33;96066.44;;;12.90;100.00
23303;BME280;11820;48.738;9.092;2023-04-29T05:34:58;96068.63;;;12.93;100.00
23303;BME280;11820;48.738;9.092;2023-04-29T05:37:23;96072.34;;;12.79;100.00
23303;BME280;11820;48.738;9.092;2023-04-29T05:39:54;96073.69;;;12.82;100.00
23303;BME280;11820;48.738;9.092;2023-04-29T05:42:20;96082.06;;;12.84;100.00
23303;BME280;11820;48.738;9.092;2023-04-29T05:44:45;96071.97;;;13.00;100.00
23303;BME280;11820;48.738;9.092;2023-04-29T05:47:10;96084.31;;;13.04;100.00
23303;BME280;11820;48.738;9.092;2023-04-29T05:49:36;96087.34;;;13.01;100.00
23303;BME280;11820;48.738;9.092;2023-04-29T05:52:01;96088.03;;;13.15;100.00
23303;BME280;11820;48.738;9.092;2023-04-29T05:54:30;96092.59;;;13.19;100.00
23303;BME280;11820;48.738;9.092;2023-04-29T05:56:56;96094.91;;;13.27;100.00
23303;BME280;11820;48.738;9.092;2023-04-29T05:59:21;96098.81;;;13.36;100.00
23303;BME280;11820;48.738;9.092;2023-04-29T06:01:47;96103.44;;;13.52;100.00
23303;BME280;11820;48.738;9.092;2023-04-29T06:04:12;96110.19;;;13.35;100.00
23303;BME280;11820;48.738;9.092;2023-04-29T06:06:37;96109.31;;;13.23;100.00
23303;BME280;11820;48.738;9.092;2023-04-29T06:09:03;96109.19;;;13.18;100.00
23303;BME280;11820;48.738;9.092;2023-04-29T06:11:28;96112.19;;;13.15;100.00
23303;BME280;11820;48.738;9.092;2023-04-29T06:13:54;96114.53;;;13.23;100.00
23303;BME280;11820;48.738;9.092;2023-04-29T06:16:19;96120.72;;;13.22;100.00
23303;BME280;11820;48.738;9.092;2023-04-29T06:18:45;96123.66;;;13.26;100.00
23303;BME280;11820;48.738;9.092;2023-04-29T06:21:10;96130.72;;;13.43;100.00
23303;BME280;11820;48.738;9.092;2023-04-29T06:23:36;96133.41;;;13.55;100.00
23303;BME280;11820;48.738;9.092;2023-04-29T06:26:01;96133.53;;;13.42;100.00
23303;BME280;11820;48.738;9.092;2023-04-29T06:28:26;96136.66;;;13.50;100.00
23303;BME280;11820;48.738;9.092;2023-04-29T06:30:53;96143.84;;;13.48;100.00
23303;BME280;11820;48.738;9.092;2023-04-29T06:33:19;96145.16;;;13.57;100.00
23303;BME280;11820;48.738;9.092;2023-04-29T06:35:44;96153.09;;;13.20;100.00
23303;BME280;11820;48.738;9.092;2023-04-29T06:38:09;96143.72;;;13.61;100.00
23303;BME280;11820;48.738;9.092;2023-04-29T06:40:35;96157.00;;;13.53;100.00
23303;BME280;11820;48.738;9.092;2023-04-29T06:43:00;96160.34;;;13.36;100.00
23303;BME280;11820;48.738;9.092;2023-04-29T06:45:26;96160.34;;;13.36;100.00
23303;BME280;11820;48.738;9.092;2023-04-29T06:47:52;96168.94;;;13.36;100.00
23303;BME280;11820;48.738;9.092;2023-04-29T06:50:17;96172.59;;;13.53;100.00
23303;BME280;11820;48.738;9.092;2023-04-29T06:52:43;96175.94;;;13.78;100.00
23303;BME280;11820;48.738;9.092;2023-04-29T06:55:08;96178.41;;;13.73;100.00
23303;BME280;11820;48.738;9.092;2023-04-29T06:57:35;96180.72;;;13.39;100.00
23303;BME280;11820;48.738;9.092;2023-04-29T07:00:01;96187.69;;;13.63;100.00
23303;BME280;11820;48.738;9.092;2023-04-29T07:02:26;96185.19;;;13.74;100.00
23303;BME280;11820;48.738;9.092;2023-04-29T07:04:52;96188.06;;;13.84;100.00
23303;BME280;11820;48.738;9.092;2023-04-29T07:07:17;96186.16;;;13.55;100.00
23303;BME280;11820;48.738;9.092;2023-04-29T07:09:43;96191.66;;;13.65;100.00
23303;BME280;11820;48.738;9.092;2023-04-29T07:12:08;96187.94;;;13.79;100.00
23303;BME280;11820;48.738;9.092;2023-04-29T07:14:33;96189.22;;;13.88;100.00
23303;BME280;11820;48.738;9.092;2023-04-29T07:17:01;96196.63;;;13.91;100.00
23303;BME280;11820;48.738;9.092;2023-04-29T07:19:26;96195.59;;;13.74;100.00
23303;BME280;11820;48.738;9.092;2023-04-29T07:21:52;96201.47;;;13.63;100.00
23303;BME280;11820;48.738;9.092;2023-04-29T07:24:17;96205.47;;;13.41;100.00
23303;BME280;11820;48.738;9.092;2023-04-29T07:26:43;96199.06;;;13.86;100.00
23303;BME280;11820;48.738;9.092;2023-04-29T07:29:11;96209.94;;;13.77;100.00
23303;BME280;11820;48.738;9.092;2023-04-29T07:31:36;96206.72;;;13.81;100.00
23303;BME280;11820;48.738;9.092;2023-04-29T07:34:02;96210.75;;;13.77;100.00
23303;BME280;11820;48.738;9.092;2023-04-29T07:36:27;96208.44;;;13.69;100.00
23303;BME280;11820;48.738;9.092;2023-04-29T07:38:53;96206.72;;;13.81;100.00
23303;BME280;11820;48.738;9.092;2023-04-29T07:41:19;96211.19;;;13.74;100.00
23303;BME280;11820;48.738;9.092;2023-04-29T07:43:44;96202.53;;;13.98;100.00
23303;BME280;11820;48.738;9.092;2023-04-29T07:46:09;96205.13;;;13.80;100.00
23303;BME280;11820;48.738;9.092;2023-04-29T07:48:37;96218.16;;;13.74;100.00
23303;BME280;11820;48.738;9.092;2023-04-29T07:51:03;96216.25;;;13.87;100.00
23303;BME280;11820;48.738;9.092;2023-04-29T07:53:29;96218.78;;;13.94;100.00
23303;BME280;11820;48.738;9.092;2023-04-29T07:55:54;96219.84;;;13.86;100.00
23303;BME280;11820;48.738;9.092;2023-04-29T07:58:20;96217.81;;;13.88;100.00
23303;BME280;11820;48.738;9.092;2023-04-29T08:00:45;96219.84;;;13.86;100.00
23303;BME280;11820;48.738;9.092;2023-04-29T08:03:11;96218.16;;;13.98;100.00
23303;BME280;11820;48.738;9.092;2023-04-29T08:05:37;96219.44;;;14.07;100.00
23303;BME280;11820;48.738;9.092;2023-04-29T08:08:02;96216.59;;;14.33;100.00
23303;BME280;11820;48.738;9.092;2023-04-29T08:10:27;96228.72;;;14.39;100.00
23303;BME280;11820;48.738;9.092;2023-04-29T08:12:53;96229.03;;;14.31;100.00
23303;BME280;11820;48.738;9.092;2023-04-29T08:15:18;96235.75;;;13.96;100.00
23303;BME280;11820;48.738;9.092;2023-04-29T08:17:44;96234.53;;;14.23;100.00
23303;BME280;11820;48.738;9.092;2023-04-29T08:20:10;96238.13;;;14.22;100.00
23303;BME280;11820;48.738;9.092;2023-04-29T08:22:35;96239.94;;;14.22;100.00
23303;BME280;11820;48.738;9.092;2023-04-29T08:25:02;96233.84;;;14.28;100.00
23303;BME280;11820;48.738;9.092;2023-04-29T08:27:29;96247.75;;;14.40;100.00
23303;BME280;11820;48.738;9.092;2023-04-29T08:29:54;96241.03;;;14.50;100.00
23303;BME280;11820;48.738;9.092;2023-04-29T08:32:20;96244.38;;;14.15;100.00
23303;BME280;11820;48.738;9.092;2023-04-29T08:34:45;96244.19;;;14.34;100.00
23303;BME280;11820;48.738;9.092;2023-04-29T08:37:11;96243.47;;;14.27;100.00
23303;BME280;11820;48.738;9.092;2023-04-29T08:39:36;96254.25;;;14.31;100.00
23303;BME280;11820;48.738;9.092;2023-04-29T08:42:08;96251.19;;;14.16;100.00
23303;BME280;11820;48.738;9.092;2023-04-29T08:44:34;96244.00;;;14.11;100.00
23303;BME280;11820;48.738;9.092;2023-04-29T08:47:00;96249.06;;;14.06;100.00
23303;BME280;11820;48.738;9.092;2023-04-29T08:49:29;96248.53;;;14.22;100.00
23303;BME280;11820;48.738;9.092;2023-04-29T08:51:56;96241.38;;;14.36;100.00
23303;BME280;11820;48.738;9.092;2023-04-29T08:54:22;96253.97;;;14.57;100.00
23303;BME280;11820;48.738;9.092;2023-04-29T08:56:47;96255.63;;;14.69;100.00
23303;BME280;11820;48.738;9.092;2023-04-29T08:59:16;96257.91;;;14.59;100.00
23303;BME280;11820;48.738;9.092;2023-04-29T09:01:42;96247.69;;;14.46;100.00
23303;BME280;11820;48.738;9.092;2023-04-29T09:04:14;96260.38;;;14.54;100.00
23303;BME280;11820;48.738;9.092;2023-04-29T09:06:46;96257.34;;;14.75;100.00
23303;BME280;11820;48.738;9.092;2023-04-29T09:09:12;96255.44;;;14.64;100.00
23303;BME280;11820;48.738;9.092;2023-04-29T09:11:39;96258.00;;;14.53;100.00
23303;BME280;11820;48.738;9.092;2023-04-29T09:14:05;96254.97;;;14.56;100.00
23303;BME280;11820;48.738;9.092;2023-04-29T09:16:30;96251.75;;;14.71;100.00
23303;BME280;11820;48.738;9.092;2023-04-29T09:18:55;96258.97;;;14.87;100.00
23303;BME280;11820;48.738;9.092;2023-04-29T09:21:23;96258.22;;;14.69;100.00
23303;BME280;11820;48.738;9.092;2023-04-29T09:23:54;96259.56;;;14.71;100.00
23303;BME280;11820;48.738;9.092;2023-04-29T09:26:20;96263.56;;;14.56;100.00
23303;BME280;11820;48.738;9.092;2023-04-29T09:28:46;96261.09;;;14.61;100.00
23303;BME280;11820;48.738;9.092;2023-04-29T09:31:13;96261.97;;;14.19;100.00
23303;BME280;11820;48.738;9.092;2023-04-29T09:33:49;96264.59;;;14.19;100.00
23303;BME280;11820;48.738;9.092;2023-04-29T09:38:59;96269.13;;;14.24;100.00
23303;BME280;11820;48.738;9.092;2023-04-29T09:41:24;96270.34;;;14.39;100.00
23303;BME280;11820;48.738;9.092;2023-04-29T09:44:02;96273.41;;;14.54;100.00
23303;BME280;11820;48.738;9.092;2023-04-29T09:46:29;96277.16;;;14.58;100.00
23303;BME280;11820;48.738;9.092;2023-04-29T09:48:54;96276.75;;;14.43;100.00
23303;BME280;11820;48.738;9.092;2023-04-29T09:51:21;96279.69;;;14.82;100.00
23303;BME280;11820;48.738;9.092;2023-04-29T09:53:47;96275.75;;;14.73;100.00
23303;BME280;11820;48.738;9.092;2023-04-29T09:56:12;96275.63;;;14.86;100.00
23303;BME280;11820;48.738;9.092;2023-04-29T09:58:37;96278.97;;;15.05;100.00
23303;BME280;11820;48.738;9.092;2023-04-29T10:01:03;96282.78;;;14.73;100.00
23303;BME280;11820;48.738;9.092;2023-04-29T10:03:32;96285.09;;;14.63;100.00
23303;BME280;11820;48.738;9.092;2023-04-29T10:05:59;96276.78;;;15.20;100.00
23303;BME280;11820;48.738;9.092;2023-04-29T10:08:26;96283.38;;;15.04;100.00
23303;BME280;11820;48.738;9.092;2023-04-29T10:10:53;96273.16;;;15.50;100.00
23303;BME280;11820;48.738;9.092;2023-04-29T10:13:25;96281.50;;;15.41;100.00
23303;BME280;11820;48.738;9.092;2023-04-29T10:16:30;96277.94;;;15.24;100.00
23303;BME280;11820;48.738;9.092;2023-04-29T10:18:59;96278.63;;;15.01;100.00
23303;BME280;11820;48.738;9.092;2023-04-29T10:21:29;96282.34;;;14.94;100.00
23303;BME280;11820;48.738;9.092;2023-04-29T10:23:57;96274.66;;;15.28;100.00
23303;BME280;11820;48.738;9.092;2023-04-29T10:26:26;96271.63;;;15.95;100.00
23303;BME280;11820;48.738;9.092;2023-04-29T10:28:55;96269.94;;;16.01;100.00
23303;BME280;11820;48.738;9.092;2023-04-29T10:31:21;96274.81;;;15.97;100.00
23303;BME280;11820;48.738;9.092;2023-04-29T10:33:50;96270.34;;;15.52;100.00
23303;BME280;11820;48.738;9.092;2023-04-29T10:36:19;96268.38;;;15.47;100.00
23303;BME280;11820;48.738;9.092;2023-04-29T10:38:48;96273.97;;;15.62;100.00
23303;BME280;11820;48.738;9.092;2023-04-29T10:41:21;96268.38;;;15.47;100.00
23303;BME280;11820;48.738;9.092;2023-04-29T10:43:50;96267.88;;;15.80;100.00
23303;BME280;11820;48.738;9.092;2023-04-29T10:46:21;96256.44;;;15.92;100.00
23303;BME280;11820;48.738;9.092;2023-04-29T10:48:49;96257.47;;;16.03;100.00
23303;BME280;11820;48.738;9.092;2023-04-29T10:51:42;96271.34;;;15.51;100.00
23303;BME280;11820;48.738;9.092;2023-04-29T10:54:14;96262.06;;;15.55;100.00
23303;BME280;11820;48.738;9.092;2023-04-29T10:56:47;96257.22;;;16.16;100.00
23303;BME280;11820;48.738;9.092;2023-04-29T11:00:00;96266.06;;;15.92;100.00
23303;BME280;11820;48.738;9.092;2023-04-29T11:02:00;96254.94;;;15.62;100.00
23303;BME280;11820;48.738;9.092;2023-04-29T11:04:26;96263.97;;;15.48;100.00
23303;BME280;11820;48.738;9.092;2023-04-29T11:06:54;96268.66;;;15.69;100.00
23303;BME280;11820;48.738;9.092;2023-04-29T11:09:24;96262.97;;;15.49;100.00
23303;BME280;11820;48.738;9.092;2023-04-29T11:12:04;96257.94;;;15.36;100.00
23303;BME280;11820;48.738;9.092;2023-04-29T11:14:31;96255.06;;;15.90;100.00
23303;BME280;11820;48.738;9.092;2023-04-29T11:16:59;96257.22;;;15.93;100.00
23303;BME280;11820;48.738;9.092;2023-04-29T11:19:30;96259.94;;;15.75;100.00
23303;BME280;11820;48.738;9.092;2023-04-29T11:27:14;96256.59;;;15.56;100.00
23303;BME280;11820;48.738;9.092;2023-04-29T11:29:40;96257.81;;;15.83;100.00
23303;BME280;11820;48.738;9.092;2023-04-29T11:32:06;96258.25;;;16.03;100.00
23303;BME280;11820;48.738;9.092;2023-04-29T11:34:32;96253.59;;;15.94;100.00
23303;BME280;11820;48.738;9.092;2023-04-29T11:36:57;96252.13;;;15.75;100.00
23303;BME280;11820;48.738;9.092;2023-04-29T11:39:22;96258.13;;;15.75;100.00
23303;BME280;11820;48.738;9.092;2023-04-29T11:41:48;96257.56;;;15.85;100.00
23303;BME280;11820;48.738;9.092;2023-04-29T11:44:13;96258.81;;;15.94;100.00
23303;BME280;11820;48.738;9.092;2023-04-29T11:46:39;96261.75;;;15.97;100.00
23303;BME280;11820;48.738;9.092;2023-04-29T11:49:04;96254.72;;;16.21;100.00
23303;BME280;11820;48.738;9.092;2023-04-29T11:51:30;96258.50;;;16.13;100.00
23303;BME280;11820;48.738;9.092;2023-04-29T11:53:56;96254.84;;;16.48;100.00
23303;BME280;11820;48.738;9.092;2023-04-29T11:56:22;96251.44;;;16.48;100.00
23303;BME280;11820;48.738;9.092;2023-04-29T11:58:52;96250.16;;;16.73;100.00
23303;BME280;11820;48.738;9.092;2023-04-29T12:01:19;96256.53;;;16.54;100.00
23303;BME280;11820;48.738;9.092;2023-04-29T12:03:47;96251.72;;;16.74;100.00
23303;BME280;11820;48.738;9.092;2023-04-29T12:06:13;96241.47;;;17.12;100.00
23303;BME280;11820;48.738;9.092;2023-04-29T12:08:39;96243.47;;;17.22;100.00
23303;BME280;11820;48.738;9.092;2023-04-29T12:11:05;96252.69;;;17.24;100.00
23303;BME280;11820;48.738;9.092;2023-04-29T12:13:32;96244.88;;;17.13;100.00
23303;BME280;11820;48.738;9.092;2023-04-29T12:16:00;96244.34;;;17.39;100.00
23303;BME280;11820;48.738;9.092;2023-04-29T12:18:27;96248.53;;;18.60;100.00
23303;BME280;11820;48.738;9.092;2023-04-29T12:20:53;96255.34;;;16.85;100.00
23303;BME280;11820;48.738;9.092;2023-04-29T12:23:22;96260.38;;;16.29;100.00
23303;BME280;11820;48.738;9.092;2023-04-29T12:25:55;96272.78;;;16.22;100.00
23303;BME280;11820;48.738;9.092;2023-04-29T12:28:21;96268.56;;;16.10;100.00
23303;BME280;11820;48.738;9.092;2023-04-29T12:30:48;96274.72;;;16.04;100.00
23303;BME280;11820;48.738;9.092;2023-04-29T12:35:49;96271.41;;;15.74;100.00
23303;BME280;11820;48.738;9.092;2023-04-29T12:38:21;96284.06;;;15.59;100.00
23303;BME280;11820;48.738;9.092;2023-04-29T12:40:47;96280.53;;;15.65;100.00
23303;BME280;11820;48.738;9.092;2023-04-29T12:43:13;96276.69;;;15.56;100.00
23303;BME280;11820;48.738;9.092;2023-04-29T12:45:39;96278.28;;;15.57;100.00
23303;BME280;11820;48.738;9.092;2023-04-29T12:48:04;96271.84;;;15.82;100.00
23303;BME280;11820;48.738;9.092;2023-04-29T12:50:35;96282.19;;;16.12;100.00
23303;BME280;11820;48.738;9.092;2023-04-29T12:53:03;96277.53;;;16.14;100.00
23303;BME280;11820;48.738;9.092;2023-04-29T12:55:31;96278.91;;;15.93;100.00
23303;BME280;11820;48.738;9.092;2023-04-29T12:57:56;96283.97;;;15.77;100.00
23303;BME280;11820;48.738;9.092;2023-04-29T13:00:22;96272.25;;;17.83;100.00
23303;BME280;11820;48.738;9.092;2023-04-29T13:02:47;96269.38;;;18.17;100.00
23303;BME280;11820;48.738;9.092;2023-04-29T13:05:13;96274.84;;;17.22;100.00
23303;BME280;11820;48.738;9.092;2023-04-29T13:07:38;96287.84;;;16.31;100.00
23303;BME280;11820;48.738;9.092;2023-04-29T13:10:05;96287.84;;;16.09;100.00
23303;BME280;11820;48.738;9.092;2023-04-29T13:12:31;96281.94;;;15.79;100.00